EDW245Z LEPA-LSZH
Flight info
| Callsign | EDW245Z |
|---|---|
| Flight time | N/A |
| Altitude | 40000 |
| Route | MEROS5A/24R MEROS DCT LAPIT DCT CHELY DCT LUMAS DCT MAXIR DCT LUSOL DCT BODRU DCT OKTET DCT IRMAR DCT KINES DCT VANAS DCT MOBLO DCT LAMUR DCT KORED N871 BERSU |
| Aircraft | A359/H-SDE2E3GHIJ1J3J4J5LM1ORWXY/LB1D1 |
Departure
| Time | N/A |
|---|---|
| Airport | Palma de Mallorca Airport (LEPA) |
Arrival
| Time | 2026-05-03 21:11 |
|---|---|
| Airport | Zürich Airport (LSZH) |
| Time | Latitude | Longitude | Altitude | Speed | Heading |
|---|---|---|---|---|---|
| 2026-05-03 20:15 | 42.33914 | 5.15734 | 40074 ft | 505 kts | 29° |
| 2026-05-03 20:15 | 42.39937 | 5.20674 | 40072 ft | 505 kts | 29° |
| 2026-05-03 20:16 | 42.45898 | 5.25575 | 40070 ft | 505 kts | 29° |
| 2026-05-03 20:16 | 42.51906 | 5.30524 | 40079 ft | 505 kts | 29° |
| 2026-05-03 20:17 | 42.57916 | 5.35487 | 40074 ft | 506 kts | 29° |
| 2026-05-03 20:17 | 42.63926 | 5.40462 | 40078 ft | 505 kts | 29° |
| 2026-05-03 20:18 | 42.69936 | 5.45448 | 40078 ft | 505 kts | 29° |
| 2026-05-03 20:18 | 42.75937 | 5.50437 | 40083 ft | 505 kts | 29° |
| 2026-05-03 20:19 | 42.81902 | 5.55408 | 40083 ft | 505 kts | 29° |
| 2026-05-03 20:19 | 42.87903 | 5.60421 | 40083 ft | 505 kts | 29° |
| 2026-05-03 20:20 | 42.93903 | 5.65444 | 40090 ft | 505 kts | 29° |
| 2026-05-03 20:20 | 42.99864 | 5.70445 | 40092 ft | 506 kts | 30° |
| 2026-05-03 20:21 | 43.05858 | 5.75488 | 40095 ft | 505 kts | 29° |
| 2026-05-03 20:21 | 43.11802 | 5.80499 | 40101 ft | 505 kts | 30° |
| 2026-05-03 20:22 | 43.17783 | 5.85553 | 40100 ft | 505 kts | 30° |
| 2026-05-03 20:22 | 43.23772 | 5.90625 | 40101 ft | 505 kts | 30° |
| 2026-05-03 20:23 | 43.28752 | 5.94852 | 40112 ft | 505 kts | 30° |
| 2026-05-03 20:23 | 43.34736 | 5.99938 | 40103 ft | 506 kts | 30° |
| 2026-05-03 20:24 | 43.41142 | 6.03704 | 40104 ft | 498 kts | 10° |
| 2026-05-03 20:24 | 43.47962 | 6.04982 | 40112 ft | 494 kts | 1° |
| 2026-05-03 20:25 | 43.54781 | 6.05682 | 40109 ft | 493 kts | 360° |
| 2026-05-03 20:25 | 43.61633 | 6.06310 | 40105 ft | 493 kts | 0° |
| 2026-05-03 20:26 | 43.68494 | 6.06975 | 40102 ft | 493 kts | 0° |
| 2026-05-03 20:26 | 43.75298 | 6.07899 | 40115 ft | 497 kts | 8° |
| 2026-05-03 20:27 | 43.81871 | 6.11056 | 40110 ft | 503 kts | 21° |
| 2026-05-03 20:27 | 43.88206 | 6.15248 | 40105 ft | 504 kts | 24° |
| 2026-05-03 20:28 | 43.94441 | 6.19564 | 40123 ft | 503 kts | 24° |
| 2026-05-03 20:28 | 44.00717 | 6.23905 | 40106 ft | 503 kts | 24° |
| 2026-05-03 20:29 | 44.06999 | 6.28225 | 40121 ft | 504 kts | 23° |
| 2026-05-03 20:29 | 44.13289 | 6.32550 | 40117 ft | 503 kts | 24° |
| 2026-05-03 20:30 | 44.19538 | 6.36854 | 40112 ft | 504 kts | 24° |
| 2026-05-03 20:30 | 44.25821 | 6.41188 | 40122 ft | 503 kts | 24° |
| 2026-05-03 20:31 | 44.32102 | 6.45541 | 40118 ft | 504 kts | 24° |
| 2026-05-03 20:31 | 44.38373 | 6.49886 | 40108 ft | 502 kts | 24° |
| 2026-05-03 20:32 | 44.44621 | 6.54229 | 40138 ft | 501 kts | 23° |
| 2026-05-03 20:32 | 44.50868 | 6.58584 | 40124 ft | 501 kts | 24° |
| 2026-05-03 20:33 | 44.57088 | 6.62933 | 40126 ft | 502 kts | 24° |
| 2026-05-03 20:33 | 44.63340 | 6.67316 | 40124 ft | 502 kts | 24° |
| 2026-05-03 20:34 | 44.69598 | 6.71709 | 40135 ft | 502 kts | 24° |
| 2026-05-03 20:34 | 44.75861 | 6.76041 | 40128 ft | 501 kts | 20° |
| 2026-05-03 20:35 | 44.82519 | 6.78503 | 40134 ft | 490 kts | 1° |
| 2026-05-03 20:35 | 44.89298 | 6.78527 | 40132 ft | 486 kts | 353° |
| 2026-05-03 20:36 | 44.96063 | 6.78078 | 40128 ft | 486 kts | 352° |
| 2026-05-03 20:36 | 45.02776 | 6.77567 | 40140 ft | 486 kts | 353° |
| 2026-05-03 20:37 | 45.09548 | 6.77094 | 40132 ft | 487 kts | 353° |
| 2026-05-03 20:37 | 45.16315 | 6.76645 | 40121 ft | 486 kts | 353° |
| 2026-05-03 20:38 | 45.23075 | 6.76199 | 40117 ft | 486 kts | 353° |
| 2026-05-03 20:38 | 45.29806 | 6.75753 | 40115 ft | 486 kts | 353° |
| 2026-05-03 20:39 | 45.36561 | 6.75298 | 40112 ft | 486 kts | 353° |
| 2026-05-03 20:39 | 45.43326 | 6.74846 | 40108 ft | 486 kts | 353° |
| 2026-05-03 20:40 | 45.50088 | 6.74399 | 40106 ft | 486 kts | 353° |
| 2026-05-03 20:40 | 45.56853 | 6.73935 | 40105 ft | 485 kts | 353° |
| 2026-05-03 20:41 | 45.63572 | 6.73468 | 40110 ft | 487 kts | 353° |
| 2026-05-03 20:41 | 45.70347 | 6.72999 | 40072 ft | 486 kts | 353° |
| 2026-05-03 20:42 | 45.77106 | 6.72631 | 40078 ft | 488 kts | 358° |
| 2026-05-03 20:42 | 45.83835 | 6.74346 | 40078 ft | 497 kts | 17° |
| 2026-05-03 20:43 | 45.90255 | 6.78173 | 40072 ft | 500 kts | 22° |
| 2026-05-03 20:43 | 45.96576 | 6.82346 | 40092 ft | 500 kts | 22° |
| 2026-05-03 20:44 | 46.02845 | 6.86521 | 40076 ft | 499 kts | 22° |
| 2026-05-03 20:44 | 46.09164 | 6.90699 | 40070 ft | 499 kts | 22° |
| 2026-05-03 20:45 | 46.15488 | 6.94866 | 40067 ft | 499 kts | 22° |
| 2026-05-03 20:45 | 46.21799 | 6.99034 | 40062 ft | 499 kts | 22° |
| 2026-05-03 20:46 | 46.28070 | 7.03185 | 40070 ft | 499 kts | 22° |
| 2026-05-03 20:46 | 46.34379 | 7.07371 | 40066 ft | 499 kts | 22° |
| 2026-05-03 20:47 | 46.40676 | 7.11561 | 40063 ft | 499 kts | 22° |
| 2026-05-03 20:47 | 46.46990 | 7.15772 | 40055 ft | 499 kts | 22° |
| 2026-05-03 20:48 | 46.53317 | 7.20002 | 39732 ft | 504 kts | 22° |
| 2026-05-03 20:48 | 46.56508 | 7.22140 | 39490 ft | 505 kts | 22° |
| 2026-05-03 20:48 | 46.59707 | 7.24287 | 39130 ft | 505 kts | 22° |
| 2026-05-03 20:48 | 46.62895 | 7.26429 | 38665 ft | 505 kts | 22° |
| 2026-05-03 20:49 | 46.66086 | 7.28576 | 38089 ft | 505 kts | 22° |
| 2026-05-03 20:49 | 46.69281 | 7.30729 | 37433 ft | 507 kts | 22° |
| 2026-05-03 20:49 | 46.72491 | 7.32896 | 36623 ft | 508 kts | 22° |
| 2026-05-03 20:49 | 46.75703 | 7.35067 | 35846 ft | 509 kts | 22° |
| 2026-05-03 20:50 | 46.78920 | 7.37244 | 35083 ft | 510 kts | 22° |
| 2026-05-03 20:50 | 46.82044 | 7.39554 | 34352 ft | 511 kts | 28° |
| 2026-05-03 20:50 | 46.84970 | 7.42514 | 33586 ft | 513 kts | 38° |
| 2026-05-03 20:50 | 46.87535 | 7.46149 | 32772 ft | 514 kts | 48° |
| 2026-05-03 20:51 | 46.89862 | 7.50106 | 31990 ft | 514 kts | 50° |
| 2026-05-03 20:51 | 46.92117 | 7.54162 | 31220 ft | 509 kts | 51° |
| 2026-05-03 20:51 | 46.94277 | 7.58164 | 30498 ft | 492 kts | 51° |
| 2026-05-03 20:51 | 46.96351 | 7.62052 | 29718 ft | 476 kts | 52° |
| 2026-05-03 20:52 | 46.98367 | 7.65836 | 28913 ft | 471 kts | 52° |
| 2026-05-03 20:52 | 47.00391 | 7.69627 | 28097 ft | 472 kts | 51° |
| 2026-05-03 20:52 | 47.02402 | 7.73371 | 27316 ft | 474 kts | 51° |
| 2026-05-03 20:52 | 47.04446 | 7.77165 | 26555 ft | 475 kts | 51° |
| 2026-05-03 20:53 | 47.06494 | 7.80965 | 25797 ft | 473 kts | 51° |
| 2026-05-03 20:53 | 47.08495 | 7.84684 | 25080 ft | 456 kts | 51° |
| 2026-05-03 20:53 | 47.10422 | 7.88273 | 24376 ft | 441 kts | 51° |
| 2026-05-03 20:53 | 47.12301 | 7.91777 | 23713 ft | 435 kts | 51° |
| 2026-05-03 20:54 | 47.13983 | 7.95486 | 22910 ft | 437 kts | 62° |
| 2026-05-03 20:54 | 47.16619 | 8.03569 | 21321 ft | 439 kts | 65° |
| 2026-05-03 20:54 | 47.17913 | 8.07631 | 20555 ft | 439 kts | 65° |
| 2026-05-03 20:55 | 47.19259 | 8.11653 | 19813 ft | 438 kts | 63° |
| 2026-05-03 20:55 | 47.20672 | 8.15623 | 19083 ft | 437 kts | 63° |
| 2026-05-03 20:55 | 47.22081 | 8.19568 | 18365 ft | 430 kts | 63° |
| 2026-05-03 20:55 | 47.23434 | 8.23381 | 17590 ft | 411 kts | 63° |
| 2026-05-03 20:56 | 47.24710 | 8.26994 | 16844 ft | 395 kts | 63° |
| 2026-05-03 20:56 | 47.25952 | 8.30524 | 16113 ft | 379 kts | 63° |
| 2026-05-03 20:56 | 47.27140 | 8.33907 | 15502 ft | 363 kts | 63° |
| 2026-05-03 20:56 | 47.28264 | 8.37120 | 14913 ft | 350 kts | 63° |
| 2026-05-03 20:57 | 47.29376 | 8.40300 | 14334 ft | 340 kts | 63° |
| 2026-05-03 20:57 | 47.30438 | 8.43342 | 13741 ft | 339 kts | 63° |
| 2026-05-03 20:57 | 47.31517 | 8.46439 | 13187 ft | 339 kts | 63° |
| 2026-05-03 20:57 | 47.32592 | 8.49524 | 12666 ft | 338 kts | 63° |
| 2026-05-03 20:58 | 47.33583 | 8.52644 | 12146 ft | 328 kts | 71° |
| 2026-05-03 20:58 | 47.33969 | 8.55855 | 11659 ft | 310 kts | 92° |
| 2026-05-03 20:58 | 47.33833 | 8.58959 | 11181 ft | 300 kts | 98° |
| 2026-05-03 20:58 | 47.33607 | 8.61995 | 10688 ft | 297 kts | 98° |
| 2026-05-03 20:59 | 47.33377 | 8.65021 | 10265 ft | 297 kts | 98° |
| 2026-05-03 20:59 | 47.33152 | 8.68032 | 9899 ft | 294 kts | 98° |
| 2026-05-03 20:59 | 47.32934 | 8.70979 | 9517 ft | 291 kts | 98° |
| 2026-05-03 20:59 | 47.32718 | 8.73931 | 9110 ft | 288 kts | 98° |
| 2026-05-03 21:00 | 47.32505 | 8.76840 | 8795 ft | 283 kts | 98° |
| 2026-05-03 21:00 | 47.32434 | 8.77811 | 8707 ft | 280 kts | 98° |
| 2026-05-03 21:00 | 47.32099 | 8.82449 | 8346 ft | 266 kts | 98° |
| 2026-05-03 21:00 | 47.31900 | 8.85126 | 8223 ft | 259 kts | 98° |
| 2026-05-03 21:01 | 47.31706 | 8.87717 | 8100 ft | 252 kts | 98° |
| 2026-05-03 21:01 | 47.31516 | 8.90273 | 7982 ft | 250 kts | 98° |
| 2026-05-03 21:01 | 47.31330 | 8.92817 | 7859 ft | 249 kts | 98° |
| 2026-05-03 21:01 | 47.31144 | 8.95349 | 7740 ft | 249 kts | 98° |
| 2026-05-03 21:02 | 47.31068 | 8.97893 | 7608 ft | 248 kts | 87° |
| 2026-05-03 21:02 | 47.31518 | 9.00284 | 7476 ft | 240 kts | 64° |
| 2026-05-03 21:02 | 47.32526 | 9.02162 | 7375 ft | 232 kts | 41° |
| 2026-05-03 21:02 | 47.33907 | 9.03338 | 7296 ft | 230 kts | 20° |
| 2026-05-03 21:03 | 47.35480 | 9.03730 | 7172 ft | 231 kts | 3° |
| 2026-05-03 21:03 | 47.37089 | 9.03894 | 7047 ft | 232 kts | 5° |
| 2026-05-03 21:03 | 47.38680 | 9.04009 | 6991 ft | 232 kts | 358° |
| 2026-05-03 21:03 | 47.40250 | 9.03512 | 6990 ft | 232 kts | 336° |
| 2026-05-03 21:04 | 47.41554 | 9.02157 | 6992 ft | 230 kts | 310° |
| 2026-05-03 21:04 | 47.42351 | 9.00139 | 6997 ft | 227 kts | 288° |
| 2026-05-03 21:04 | 47.42736 | 8.97893 | 7000 ft | 225 kts | 276° |
| 2026-05-03 21:04 | 47.42917 | 8.95588 | 6990 ft | 226 kts | 273° |
| 2026-05-03 21:05 | 47.43068 | 8.93294 | 6824 ft | 222 kts | 274° |
| 2026-05-03 21:05 | 47.43229 | 8.91045 | 6554 ft | 218 kts | 274° |
| 2026-05-03 21:05 | 47.43388 | 8.88863 | 6180 ft | 215 kts | 274° |
| 2026-05-03 21:05 | 47.43544 | 8.86667 | 5801 ft | 215 kts | 274° |
| 2026-05-03 21:06 | 47.43701 | 8.84472 | 5430 ft | 214 kts | 275° |
| 2026-05-03 21:06 | 47.43856 | 8.82310 | 5121 ft | 210 kts | 275° |
| 2026-05-03 21:06 | 47.44008 | 8.80183 | 4819 ft | 204 kts | 275° |
| 2026-05-03 21:06 | 47.44152 | 8.78162 | 4531 ft | 191 kts | 275° |
| 2026-05-03 21:07 | 47.44286 | 8.76280 | 4259 ft | 179 kts | 275° |
| 2026-05-03 21:07 | 47.44412 | 8.74513 | 4013 ft | 169 kts | 275° |
| 2026-05-03 21:07 | 47.44534 | 8.72801 | 3768 ft | 166 kts | 275° |
| 2026-05-03 21:07 | 47.44655 | 8.71115 | 3534 ft | 164 kts | 276° |
| 2026-05-03 21:08 | 47.44771 | 8.69492 | 3290 ft | 154 kts | 276° |
| 2026-05-03 21:08 | 47.44879 | 8.67969 | 3072 ft | 145 kts | 276° |
| 2026-05-03 21:08 | 47.44982 | 8.66534 | 2864 ft | 137 kts | 275° |
| 2026-05-03 21:08 | 47.45079 | 8.65153 | 2693 ft | 134 kts | 275° |
| 2026-05-03 21:09 | 47.45151 | 8.63773 | 2534 ft | 135 kts | 273° |
| 2026-05-03 21:09 | 47.45237 | 8.62399 | 2325 ft | 136 kts | 276° |
| 2026-05-03 21:09 | 47.45356 | 8.61013 | 2098 ft | 137 kts | 277° |
| 2026-05-03 21:09 | 47.45462 | 8.59624 | 1872 ft | 136 kts | 276° |
| 2026-05-03 21:10 | 47.45563 | 8.58225 | 1647 ft | 137 kts | 276° |
| 2026-05-03 21:10 | 47.45667 | 8.56826 | 1455 ft | 137 kts | 277° |
| 2026-05-03 21:10 | 47.45764 | 8.55508 | 1414 ft | 112 kts | 276° |
| 2026-05-03 21:10 | 47.45832 | 8.54576 | 1407 ft | 70 kts | 276° |
| 2026-05-03 21:11 | 47.45874 | 8.54001 | 1404 ft | 47 kts | 275° |
| 2026-05-03 21:11 | 47.45913 | 8.53789 | 1413 ft | 12 kts | 331° |
| 2026-05-03 21:11 | 47.45982 | 8.53819 | 1415 ft | 12 kts | 54° |
| 2026-05-03 21:11 | 47.45985 | 8.53953 | 1404 ft | 15 kts | 95° |
| 2026-05-03 21:12 | 47.45975 | 8.54122 | 1412 ft | 19 kts | 96° |
| 2026-05-03 21:12 | 47.45959 | 8.54327 | 1403 ft | 20 kts | 96° |
| 2026-05-03 21:12 | 47.45944 | 8.54545 | 1405 ft | 23 kts | 96° |
| 2026-05-03 21:12 | 47.45927 | 8.54780 | 1402 ft | 21 kts | 95° |
| 2026-05-03 21:13 | 47.45917 | 8.54925 | 1401 ft | 21 kts | 96° |
| 2026-05-03 21:13 | 47.45902 | 8.55141 | 1408 ft | 21 kts | 95° |
| 2026-05-03 21:13 | 47.45887 | 8.55359 | 1411 ft | 21 kts | 96° |
| 2026-05-03 21:13 | 47.45876 | 8.55520 | 1412 ft | 11 kts | 95° |
| 2026-05-03 21:14 | 47.45894 | 8.55552 | 1413 ft | 5 kts | 13° |
| 2026-05-03 21:14 | 47.45946 | 8.55577 | 1416 ft | 10 kts | 38° |
| 2026-05-03 21:14 | 47.46011 | 8.55618 | 1411 ft | 8 kts | 8° |
| 2026-05-03 21:14 | 47.46026 | 8.55621 | 1413 ft | 0 kts | 7° |
| 2026-05-03 21:15 | 47.46035 | 8.55623 | 1415 ft | 0 kts | 7° |
| 2026-05-03 21:15 | 47.46037 | 8.55623 | 1412 ft | 1 kts | 7° |
| 2026-05-03 21:15 | 47.46041 | 8.55624 | 1412 ft | 1 kts | 7° |